Aviation Digital Data Service (ADDS)

Output produced by METARs form (1327 UTC 24 January 2021)
found at http://www.aviationweather.gov/metar/data/
 
TAPA 241300Z 10006KT 060V140 9999 BKN020 27/21 Q1017 NOSIG
TAPA 241200Z 10006KT 060V140 9999 FEW020 25/20 Q1017 NOSIG
TAPA 241100Z VRB02KT 9999 FEW018 24/20 Q1016 NOSIG
TAPA 241000Z VRB01KT 9999 SCT018 24/20 Q1015 NOSIG
TAF TAPA 241100Z 2412/2512 07007KT 9999 SCT018
       
TRPG 241300Z 10009KT 010V120 9999 SCT018 25/21 Q1018
TRPG 241200Z 09009KT 040V120 9999 FEW017 25/21 Q1018
TRPG 241100Z 09008KT 010V120 9999 SCT019 24/21 Q1017
TRPG 241000Z 09008KT 050V120 9999 SCT018 24/21 Q1016
TAF TRPG 241100Z 2412/2512 07010KT 9999 SCT020
       
TKPK 241300Z 10008KT 9999 FEW021 27/24 Q1017
TKPK 241200Z 08008KT 9999 FEW018 27/22 Q1017
TKPK 241100Z 05005KT 9999 FEW018 24/21 Q1016
TKPK 241000Z 05005KT 9999 FEW020 23/20 Q1015
TKPK 241139Z 2412/2512 05005KT P6SM FEW018 
     FM241400 09008KT P6SM SCT018 
     TEMPO 2418/2421 -SHRA BKN018 
     FM242100 05006KT P6SM FEW017
       
TKPN 241300Z 09009KT 9999 FEW024 26/22 Q1017
TKPN 241100Z 09007KT 9999 SCT020 25/22 Q1016
TAF TKPN 241100Z 2412/2512 07008KT 9999 SCT020
       
TQPF 241300Z 10011KT 9999 SCT019 27/21 Q1018
TQPF 241200Z 07005KT 9999 FEW019 25/21 Q1017
TQPF 241100Z 07004KT 9999 SCT018 24/21 Q1017
TAF TQPF 241100Z 2412/2512 07010KT 9999 SCT018
       
TUPJ 241300Z 06005KT 10SM FEW021 27/21 A3006 RMK Q1017 VIS 16KM
TUPJ 241200Z 06005KT 10SM FEW021 26/22 A3004 RMK Q1017 VIS 16KM
TUPJ 241100Z 06006KT 10SM FEW021 24/21 A3002 RMK Q1016 16KM
TAF TUPJ 241100Z 2412/2512 07006KT 9999 SCT018